Airport Name : Campbeltown

Other Name : Campbeltown

ICAO : EGEC

IATA : CAL

FAA :

Latitude : 55.437222

Longitude : -5.686389

Country : United Kingdom

Local Date and Time : 5/25/2018 11:59:00 AM

 

TAF (Terminal Aerodrome Forecast)

 

METAR (METeorological Aerodrome Report)

EGEC 251050Z 31006KT CAVOK 16/12 Q1024

EGEC 251020Z 33009KT CAVOK 16/11 Q1024

EGEC 250950Z 33008KT CAVOK 17/12 Q1025

EGEC 250920Z 34007KT CAVOK 17/12 Q1025

EGEC 250850Z 34010KT CAVOK 16/11 Q1025

EGEC 250820Z 31008KT 270V350 CAVOK 15/12 Q1024

EGEC 250750Z 28008KT CAVOK 13/10 Q1025

EGEC 250720Z 30004KT CAVOK 13/11 Q1024